Weather reports worldwide

Advertisment
Sheffield, United Kingdom (99107): temperature & dewpoint: 20.09.2018 04:00:00 - 26.09.2018 04:00:00 (BST)Sheffield, United Kingdom (99107): sunshine duration: 20.09.2018 04:00:00 - 26.09.2018 04:00:00 (BST)Sheffield, United Kingdom (99107): precipitation: 20.09.2018 04:00:00 - 26.09.2018 04:00:00 (BST)
Date & Time tt [°C] td [°C] sd [min] rr [mm]
26.09.2018 04:00:00 12,0 7,6 0 0,0
26.09.2018 03:00:00 12,1 7,6 0 0,0
26.09.2018 02:00:00 11,9 7,6 0 0,0
26.09.2018 01:00:00 12,4 7,4 - 0,0
26.09.2018 00:00:00 12,6 7,2 0 0,0
25.09.2018 23:00:00 12,7 7,0 0 0,0
25.09.2018 22:00:00 12,6 6,5 0 0,0
25.09.2018 21:00:00 13,2 6,4 0 0,0
25.09.2018 20:00:00 12,9 6,2 0 0,0
25.09.2018 19:00:00 13,8 5,3 0 0,0
25.09.2018 18:00:00 14,7 4,2 60 0,0
25.09.2018 17:00:00 15,2 2,5 30 0,0
25.09.2018 16:00:00 15,9 3,5 60 0,0
25.09.2018 15:00:00 15,7 2,4 60 0,0
25.09.2018 14:00:00 15,5 4,1 60 0,0
25.09.2018 13:00:00 14,8 3,2 60 0,0
25.09.2018 12:00:00 13,9 5,3 60 0,0
25.09.2018 11:00:00 12,6 5,3 60 0,0
25.09.2018 10:00:00 11,3 6,2 60 0,0
25.09.2018 09:00:00 7,0 6,1 60 0,0
25.09.2018 08:00:00 4,5 4,1 24 0,0
25.09.2018 07:00:00 4,1 3,5 0 0,0
25.09.2018 06:00:00 4,7 4,1 0 0,0
25.09.2018 05:00:00 5,2 4,3 0 0,0
25.09.2018 04:00:00 5,7 4,8 0 0,0
25.09.2018 03:00:00 5,9 4,5 0 0,0
25.09.2018 02:00:00 7,0 5,3 0 0,0
25.09.2018 01:00:00 7,3 5,2 - 0,0
25.09.2018 00:00:00 8,6 5,4 0 0,0
24.09.2018 23:00:00 8,3 5,4 0 0,0
24.09.2018 22:00:00 8,7 5,0 0 0,0
24.09.2018 21:00:00 9,4 5,0 0 0,0
24.09.2018 20:00:00 10,0 4,5 0 0,0
24.09.2018 19:00:00 11,4 4,3 30 0,0
24.09.2018 18:00:00 12,3 4,2 60 0,0
24.09.2018 17:00:00 12,9 4,0 60 0,0
24.09.2018 16:00:00 14,3 4,7 60 0,0
24.09.2018 15:00:00 13,8 5,4 54 0,0
24.09.2018 14:00:00 14,3 5,5 48 0,0
24.09.2018 13:00:00 13,9 4,6 42 0,0
24.09.2018 12:00:00 13,6 3,2 60 0,0
24.09.2018 11:00:00 12,4 2,4 60 0,0
24.09.2018 10:00:00 11,2 1,6 60 0,0
24.09.2018 09:00:00 8,6 2,0 60 0,0
24.09.2018 08:00:00 7,2 2,1 42 0,0
24.09.2018 07:00:00 6,8 2,2 0 0,0
24.09.2018 06:00:00 6,9 2,3 0 0,0
24.09.2018 05:00:00 7,5 3,1 0 0,0
24.09.2018 04:00:00 8,0 3,0 0 0,0
24.09.2018 03:00:00 7,8 3,0 0 0,0
24.09.2018 02:00:00 8,2 3,1 0 0,0
24.09.2018 01:00:00 8,2 3,7 - 0,0
24.09.2018 00:00:00 8,6 4,3 0 0,0
23.09.2018 23:00:00 8,6 4,9 0 0,0
23.09.2018 22:00:00 8,9 5,0 0 0,0
23.09.2018 21:00:00 9,3 5,3 0 0,0
23.09.2018 20:00:00 8,8 4,9 0 0,0
23.09.2018 19:00:00 11,1 4,3 30 0,0
23.09.2018 18:00:00 11,8 5,1 54 0,0
23.09.2018 17:00:00 13,2 2,8 60 0,0
23.09.2018 16:00:00 13,7 3,0 54 0,0
23.09.2018 15:00:00 13,9 3,2 42 0,0
23.09.2018 14:00:00 11,9 3,1 30 0,0
23.09.2018 13:00:00 12,1 3,6 42 0,0
23.09.2018 12:00:00 11,5 3,8 60 0,0
23.09.2018 11:00:00 10,4 4,1 6 0,0
23.09.2018 10:00:00 9,1 4,0 0 0,0
23.09.2018 09:00:00 8,2 4,1 0 0,0
23.09.2018 08:00:00 8,4 3,6 0 0,0
23.09.2018 07:00:00 7,9 3,7 0 0,0
23.09.2018 06:00:00 8,1 4,1 0 0,0
23.09.2018 05:00:00 7,9 4,4 0 0,0
23.09.2018 04:00:00 8,0 4,4 0 0,0
23.09.2018 03:00:00 7,1 4,9 0 0,0
23.09.2018 02:00:00 7,9 5,5 0 0,0
23.09.2018 01:00:00 9,0 6,2 - 0,0
23.09.2018 00:00:00 9,2 6,6 0 0,0
22.09.2018 23:00:00 9,4 6,6 0 0,0
22.09.2018 22:00:00 9,9 7,3 0 0,0
22.09.2018 21:00:00 10,2 7,6 0 0,0
22.09.2018 20:00:00 10,7 7,9 0 0,0
22.09.2018 19:00:00 10,9 7,9 0 0,0
22.09.2018 18:00:00 11,1 7,9 0 0,0
22.09.2018 17:00:00 12,3 6,1 0 0,0
22.09.2018 16:00:00 12,2 5,7 0 0,0
22.09.2018 15:00:00 12,2 5,2 0 0,0
22.09.2018 14:00:00 11,9 5,0 0 0,0
22.09.2018 13:00:00 11,9 5,7 0 0,0
22.09.2018 12:00:00 11,3 6,3 0 0,0
22.09.2018 11:00:00 10,8 6,0 0 0,0
22.09.2018 10:00:00 10,4 6,5 0 0,0
22.09.2018 09:00:00 9,8 6,2 0 0,0
22.09.2018 08:00:00 9,3 6,3 0 0,0
22.09.2018 07:00:00 8,7 6,6 0 0,0
22.09.2018 06:00:00 8,3 6,7 0 0,0
22.09.2018 05:00:00 8,9 6,6 0 0,0
22.09.2018 04:00:00 9,4 6,7 0 0,0
22.09.2018 03:00:00 9,7 6,4 0 0,0
22.09.2018 02:00:00 10,0 6,5 0 0,0
22.09.2018 01:00:00 10,2 7,0 - 0,0
22.09.2018 00:00:00 10,1 6,8 0 0,0
21.09.2018 23:00:00 10,6 7,2 0 0,0
21.09.2018 22:00:00 10,4 7,5 0 0,2
21.09.2018 21:00:00 10,2 7,3 0 0,0
21.09.2018 20:00:00 10,1 7,3 0 0,6
21.09.2018 19:00:00 10,9 7,6 0 0,0
21.09.2018 18:00:00 10,9 7,6 12 0,0
21.09.2018 17:00:00 11,2 7,7 24 0,0
21.09.2018 16:00:00 11,1 8,0 6 0,2
21.09.2018 15:00:00 10,9 8,8 0 1,2
21.09.2018 14:00:00 11,5 7,6 24 0,0
21.09.2018 13:00:00 13,3 6,3 54 0,0
21.09.2018 12:00:00 12,4 5,6 60 0,0
21.09.2018 11:00:00 11,8 5,7 54 0,2
21.09.2018 10:00:00 10,3 5,9 12 0,0
21.09.2018 09:00:00 9,0 6,3 6 0,0
21.09.2018 08:00:00 7,9 5,7 0 0,8
21.09.2018 07:00:00 8,7 6,3 0 0,2
21.09.2018 06:00:00 8,2 5,9 0 0,4
21.09.2018 05:00:00 8,5 5,7 0 0,0
21.09.2018 04:00:00 8,3 6,7 0 0,0
21.09.2018 03:00:00 9,9 7,3 0 0,2
21.09.2018 02:00:00 15,2 11,5 0 0,0
21.09.2018 01:00:00 16,3 14,9 - 2,8
21.09.2018 00:00:00 16,0 15,3 0 2,6
20.09.2018 23:00:00 16,3 15,6 0 3,6
20.09.2018 22:00:00 16,0 15,3 0 5,6
20.09.2018 21:00:00 15,9 15,2 0 0,4
20.09.2018 20:00:00 11,7 11,6 0 0,0
20.09.2018 19:00:00 11,3 11,1 0 4,4
20.09.2018 18:00:00 11,6 11,4 0 10,8
20.09.2018 17:00:00 11,7 11,5 0 9,8
20.09.2018 16:00:00 11,7 11,4 0 9,6
20.09.2018 15:00:00 11,9 11,4 0 7,2
20.09.2018 14:00:00 12,1 10,9 0 2,6
20.09.2018 13:00:00 13,1 10,4 0 0,4
20.09.2018 12:00:00 13,7 9,2 0 0,0
20.09.2018 11:00:00 13,3 9,4 12 0,0
20.09.2018 10:00:00 12,2 9,4 6 0,0
20.09.2018 09:00:00 11,4 9,2 0 0,0
20.09.2018 08:00:00 10,9 9,3 0 0,0
20.09.2018 07:00:00 10,6 9,2 0 0,2
20.09.2018 06:00:00 10,4 9,1 0 0,0
20.09.2018 05:00:00 10,8 9,1 0 0,0
20.09.2018 04:00:00 10,8 9,0 0 0,2

tt = temperature
td = dewpoint
sd = sunshine duration
rr = precipitation

Next stations